Time;durP1;ratioP1;P1;durP2;ratioP2;P2;SDS_P1;SDS_P2;PMS_P1;PMS_P2;Temp;Humidity;BMP_temperature;BMP_pressure;BME280_temperature;BME280_humidity;BME280_pressure;Samples;Min_cycle;Max_cycle;Signal;HPM_P1;HPM_P2
2021/10/18 00:00:55;;;;;;;16.80;10.25;;;11.90;99.90;;;;;;2086841;28;20508;-62
2021/10/18 00:01:56;;;;;;;17.60;11.03;;;11.90;99.90;;;;;;2079230;28;20033;-62
2021/10/18 00:02:56;;;;;;;14.95;10.32;;;11.90;99.90;;;;;;2079034;28;20339;-62
2021/10/18 00:03:57;;;;;;;13.27;9.90;;;12.00;99.90;;;;;;2077054;28;20100;-62
2021/10/18 00:04:58;;;;;;;17.10;10.38;;;12.00;99.90;;;;;;2070488;28;20022;-62
2021/10/18 00:05:58;;;;;;;16.25;11.05;;;11.90;99.90;;;;;;2086247;28;20516;-62
2021/10/18 00:06:59;;;;;;;12.70;9.95;;;11.90;99.90;;;;;;2070688;28;20089;-62
2021/10/18 00:08:00;;;;;;;13.50;9.77;;;11.90;99.90;;;;;;2075883;28;20397;-62
2021/10/18 00:09:02;;;;;;;14.35;10.23;;;11.90;99.90;;;;;;2074609;28;20028;-62
2021/10/18 00:10:08;;;;;;;14.20;10.05;;;11.90;99.90;;;;;;2078227;28;20050;-63
2021/10/18 00:11:09;;;;;;;13.93;10.25;;;11.90;99.90;;;;;;2078382;28;20704;-62
2021/10/18 00:12:09;;;;;;;18.50;10.15;;;11.90;99.90;;;;;;2079085;28;20045;-62
2021/10/18 00:13:11;;;;;;;14.63;10.30;;;11.90;99.90;;;;;;2074079;28;20033;-62
2021/10/18 00:14:11;;;;;;;15.77;10.60;;;11.90;99.90;;;;;;2073459;28;20021;-62
2021/10/18 00:15:15;;;;;;;16.85;10.63;;;12.00;99.90;;;;;;2074190;28;20029;-61
2021/10/18 00:16:16;;;;;;;17.65;10.77;;;12.00;99.90;;;;;;2074164;28;20377;-62
2021/10/18 00:17:17;;;;;;;16.10;10.60;;;12.00;99.90;;;;;;2073347;28;20513;-62
2021/10/18 00:18:18;;;;;;;13.90;9.90;;;12.00;99.90;;;;;;2073475;28;20018;-62
2021/10/18 00:19:18;;;;;;;14.95;10.50;;;12.00;99.90;;;;;;2073177;28;20030;-62
2021/10/18 00:20:19;;;;;;;18.05;10.48;;;11.90;99.90;;;;;;2072834;28;20022;-62
2021/10/18 00:21:20;;;;;;;16.52;10.48;;;11.90;99.90;;;;;;2075364;28;20640;-61
2021/10/18 00:22:20;;;;;;;15.10;10.45;;;11.90;99.90;;;;;;2069800;28;20076;-62
2021/10/18 00:23:21;;;;;;;16.60;9.85;;;11.90;99.90;;;;;;2076512;28;20408;-62
2021/10/18 00:24:22;;;;;;;15.82;10.65;;;11.90;99.90;;;;;;2078712;28;20021;-62
2021/10/18 00:25:23;;;;;;;15.52;11.20;;;11.90;99.90;;;;;;2077345;28;20052;-62
2021/10/18 00:26:23;;;;;;;13.95;10.73;;;11.90;99.90;;;;;;2065427;28;20102;-62
2021/10/18 00:27:24;;;;;;;16.00;11.30;;;11.90;99.90;;;;;;2069012;28;20544;-62
2021/10/18 00:28:25;;;;;;;13.73;9.73;;;11.90;99.90;;;;;;2064752;28;20018;-62
2021/10/18 00:29:25;;;;;;;18.65;10.43;;;11.90;99.90;;;;;;2072207;28;20041;-62
2021/10/18 00:30:26;;;;;;;15.88;9.95;;;11.90;99.90;;;;;;2072557;28;20026;-62
2021/10/18 00:31:27;;;;;;;16.92;11.18;;;11.90;99.90;;;;;;2073326;28;20543;-62
2021/10/18 00:32:28;;;;;;;17.00;10.20;;;11.90;99.90;;;;;;2070531;28;20025;-62
2021/10/18 00:33:29;;;;;;;15.20;10.43;;;11.90;99.90;;;;;;2065443;28;20031;-62
2021/10/18 00:34:29;;;;;;;15.90;10.50;;;11.90;99.90;;;;;;2066312;28;20030;-62
2021/10/18 00:35:30;;;;;;;18.80;11.02;;;11.90;99.90;;;;;;2065343;28;20034;-61
2021/10/18 00:36:31;;;;;;;16.02;10.38;;;11.80;99.90;;;;;;2064624;28;20031;-62
2021/10/18 00:37:31;;;;;;;16.60;10.68;;;11.80;99.90;;;;;;2066239;28;20425;-62
2021/10/18 00:38:32;;;;;;;14.40;10.27;;;11.90;99.90;;;;;;2065467;28;20022;-62
2021/10/18 00:39:33;;;;;;;14.27;10.07;;;11.80;99.90;;;;;;2064887;28;20097;-61
2021/10/18 00:40:34;;;;;;;15.10;10.15;;;11.90;99.90;;;;;;2072343;28;20100;-62
2021/10/18 00:41:34;;;;;;;15.18;10.70;;;11.90;99.90;;;;;;2080477;28;20037;-62
2021/10/18 00:42:36;;;;;;;14.68;10.23;;;11.90;99.90;;;;;;2073444;28;20104;-62
2021/10/18 00:43:39;;;;;;;15.73;11.03;;;11.90;99.90;;;;;;2070194;28;21010;-63
2021/10/18 00:44:40;;;;;;;14.32;10.43;;;11.90;99.90;;;;;;2073071;28;20264;-62
2021/10/18 00:45:40;;;;;;;17.85;10.75;;;11.90;99.90;;;;;;2072149;28;20018;-62
2021/10/18 00:46:43;;;;;;;16.65;10.88;;;11.90;99.90;;;;;;2073340;28;20124;-61
2021/10/18 00:47:44;;;;;;;15.63;10.98;;;11.90;99.90;;;;;;2072084;28;20117;-62
2021/10/18 00:48:44;;;;;;;17.33;10.80;;;11.90;99.90;;;;;;2072770;28;20779;-62
2021/10/18 00:49:46;;;;;;;14.00;10.40;;;11.90;99.90;;;;;;2073077;28;20149;-61
2021/10/18 00:50:47;;;;;;;14.27;9.95;;;11.90;99.90;;;;;;2073157;28;20029;-62
2021/10/18 00:51:48;;;;;;;16.42;10.57;;;12.00;99.90;;;;;;2073299;28;20022;-62
2021/10/18 00:52:49;;;;;;;16.48;10.88;;;12.00;99.90;;;;;;2070673;28;20049;-62
2021/10/18 00:53:53;;;;;;;14.48;10.23;;;12.00;99.90;;;;;;2070543;28;20026;-62
2021/10/18 00:54:54;;;;;;;13.70;10.10;;;12.00;99.90;;;;;;2073265;28;20018;-62
2021/10/18 00:55:56;;;;;;;12.82;10.32;;;12.00;99.90;;;;;;2072953;28;20100;-62
2021/10/18 00:56:56;;;;;;;14.55;9.73;;;12.00;99.90;;;;;;2073414;28;20141;-62
2021/10/18 00:57:58;;;;;;;14.82;9.82;;;12.00;99.90;;;;;;2072265;28;20521;-62
2021/10/18 00:59:00;;;;;;;15.02;9.95;;;12.00;99.90;;;;;;2072261;28;20053;-62
2021/10/18 01:00:01;;;;;;;17.13;11.10;;;12.00;99.90;;;;;;2075054;28;20061;-62
2021/10/18 01:01:02;;;;;;;13.60;10.02;;;12.00;99.90;;;;;;2075903;28;20029;-61
2021/10/18 01:02:03;;;;;;;12.60;9.95;;;12.00;99.90;;;;;;2087310;28;20474;-62
2021/10/18 01:03:04;;;;;;;13.32;10.20;;;12.10;99.90;;;;;;2081788;28;20033;-62
2021/10/18 01:04:05;;;;;;;17.90;11.10;;;12.10;99.90;;;;;;2080905;28;20052;-62
2021/10/18 01:05:07;;;;;;;14.82;10.70;;;12.10;99.90;;;;;;2081403;28;20025;-62
2021/10/18 01:06:08;;;;;;;13.70;10.85;;;12.10;99.90;;;;;;2080351;28;20033;-62
2021/10/18 01:07:09;;;;;;;12.60;10.05;;;12.10;99.90;;;;;;2080793;28;20022;-62
2021/10/18 01:08:10;;;;;;;14.27;9.27;;;12.10;99.90;;;;;;2080848;28;20013;-61
2021/10/18 01:09:10;;;;;;;13.77;9.60;;;12.10;99.90;;;;;;2079025;28;20109;-62
2021/10/18 01:10:11;;;;;;;13.40;10.60;;;12.10;99.90;;;;;;2085833;28;20017;-62
2021/10/18 01:11:12;;;;;;;14.15;9.90;;;12.10;99.90;;;;;;2084438;28;20056;-63
2021/10/18 01:12:12;;;;;;;14.15;10.55;;;12.10;99.90;;;;;;2078910;28;20025;-62
2021/10/18 01:13:13;;;;;;;14.73;9.68;;;12.10;99.90;;;;;;2080413;28;20021;-61
2021/10/18 01:14:14;;;;;;;14.25;9.95;;;12.10;99.90;;;;;;2088158;28;20048;-62
2021/10/18 01:15:15;;;;;;;13.18;9.75;;;12.10;99.90;;;;;;2088692;28;20099;-62
2021/10/18 01:16:16;;;;;;;13.85;9.90;;;12.10;99.90;;;;;;2080396;28;20030;-62
2021/10/18 01:17:17;;;;;;;13.30;9.90;;;12.00;99.90;;;;;;2073293;28;20026;-62
2021/10/18 01:18:17;;;;;;;15.23;10.75;;;12.00;99.90;;;;;;2075781;28;20064;-62
2021/10/18 01:19:23;;;;;;;20.60;10.88;;;12.10;99.90;;;;;;2081553;28;20025;-63
2021/10/18 01:20:37;;;;;;;17.77;9.82;;;12.10;99.90;;;;;;2077576;28;20037;-62
2021/10/18 01:21:39;;;;;;;13.30;9.52;;;12.10;99.90;;;;;;2083947;28;20027;-63
2021/10/18 01:22:40;;;;;;;19.40;11.10;;;12.10;99.90;;;;;;2083688;28;20025;-62
2021/10/18 01:23:40;;;;;;;15.70;9.85;;;12.10;99.90;;;;;;2080971;28;20033;-62
2021/10/18 01:24:42;;;;;;;12.20;9.38;;;12.10;99.90;;;;;;2080340;28;20018;-62
2021/10/18 01:25:42;;;;;;;13.65;9.88;;;12.10;99.90;;;;;;2080192;28;20133;-61
2021/10/18 01:26:43;;;;;;;12.35;9.88;;;12.10;99.90;;;;;;2080177;28;20025;-62
2021/10/18 01:27:44;;;;;;;13.85;10.13;;;12.10;99.90;;;;;;2079829;28;20056;-62
2021/10/18 01:28:44;;;;;;;16.02;10.00;;;12.20;99.90;;;;;;2083459;28;20112;-63
2021/10/18 01:29:45;;;;;;;12.43;9.60;;;12.20;99.90;;;;;;2084816;28;20554;-62
2021/10/18 01:30:46;;;;;;;15.15;9.65;;;12.10;99.90;;;;;;2080534;28;20029;-62
2021/10/18 01:31:47;;;;;;;13.90;10.25;;;12.20;99.90;;;;;;2080413;28;20025;-62
2021/10/18 01:32:48;;;;;;;13.35;10.18;;;12.20;99.90;;;;;;2080641;28;20400;-62
2021/10/18 01:33:49;;;;;;;12.50;9.57;;;12.30;99.90;;;;;;2080298;28;20049;-62
2021/10/18 01:34:50;;;;;;;14.18;10.05;;;12.20;99.90;;;;;;2080418;28;20017;-62
2021/10/18 01:35:50;;;;;;;15.23;10.38;;;12.30;99.90;;;;;;2080778;28;20081;-62
2021/10/18 01:36:51;;;;;;;15.15;10.02;;;12.30;99.90;;;;;;2080813;28;20100;-62
2021/10/18 01:37:52;;;;;;;13.98;9.48;;;12.30;99.90;;;;;;2083989;28;20029;-62
2021/10/18 01:38:53;;;;;;;16.45;10.52;;;12.30;99.90;;;;;;2081164;28;20018;-62
2021/10/18 01:39:53;;;;;;;15.00;10.00;;;12.30;99.90;;;;;;2078903;28;20037;-62
2021/10/18 01:40:54;;;;;;;15.85;9.70;;;12.30;99.90;;;;;;2084357;28;20024;-61
2021/10/18 01:41:55;;;;;;;10.55;9.07;;;12.30;99.90;;;;;;2083427;28;20739;-61
2021/10/18 01:42:56;;;;;;;14.30;9.30;;;12.30;99.90;;;;;;2073280;28;20026;-62
2021/10/18 01:43:57;;;;;;;15.52;9.73;;;12.30;99.90;;;;;;2080440;28;20276;-62
2021/10/18 01:44:57;;;;;;;12.40;9.50;;;12.30;99.90;;;;;;2080187;28;20045;-62
2021/10/18 01:45:58;;;;;;;16.08;9.50;;;12.30;99.90;;;;;;2080230;28;20440;-61
2021/10/18 01:46:59;;;;;;;12.15;9.38;;;12.30;99.90;;;;;;2076073;28;20040;-62
2021/10/18 01:47:59;;;;;;;11.50;9.18;;;12.30;99.90;;;;;;2079966;28;20021;-62
2021/10/18 01:49:00;;;;;;;19.75;10.45;;;12.40;99.90;;;;;;2080070;28;20021;-62
2021/10/18 01:50:05;;;;;;;19.00;10.60;;;12.40;99.90;;;;;;2079997;28;20021;-62
2021/10/18 01:51:10;;;;;;;15.20;9.20;;;12.40;99.90;;;;;;2080490;28;20107;-62
2021/10/18 01:52:10;;;;;;;14.50;10.10;;;12.40;99.90;;;;;;2077387;28;20084;-61
2021/10/18 01:53:11;;;;;;;11.63;9.35;;;12.40;99.90;;;;;;2079958;28;20025;-61
2021/10/18 01:54:12;;;;;;;15.48;9.73;;;12.40;99.90;;;;;;2080609;28;20021;-61
2021/10/18 01:55:13;;;;;;;14.95;9.40;;;12.40;99.90;;;;;;2080708;28;20029;-62
2021/10/18 01:56:14;;;;;;;13.73;9.40;;;12.40;99.90;;;;;;2080707;28;20025;-61
2021/10/18 01:57:15;;;;;;;11.05;8.82;;;12.40;99.90;;;;;;2079084;28;20029;-62
2021/10/18 01:58:16;;;;;;;12.25;9.52;;;12.40;99.90;;;;;;2072003;28;20096;-62
2021/10/18 01:59:17;;;;;;;16.83;9.27;;;12.40;99.90;;;;;;2080638;28;20477;-63
2021/10/18 02:00:18;;;;;;;15.02;9.60;;;12.40;99.90;;;;;;2078499;28;20022;-62
2021/10/18 02:01:19;;;;;;;13.15;9.27;;;12.40;99.90;;;;;;2080501;28;20428;-62
2021/10/18 02:02:19;;;;;;;13.82;9.27;;;12.40;99.90;;;;;;2080577;28;20033;-62
2021/10/18 02:03:20;;;;;;;12.57;9.35;;;12.40;99.90;;;;;;2085846;28;20048;-62
2021/10/18 02:04:20;;;;;;;13.38;10.00;;;12.40;99.90;;;;;;2081893;28;20032;-62
2021/10/18 02:05:21;;;;;;;13.15;9.60;;;12.40;99.90;;;;;;2080742;28;20056;-62
2021/10/18 02:06:22;;;;;;;15.10;9.32;;;12.40;99.90;;;;;;2080847;28;20048;-62
2021/10/18 02:07:23;;;;;;;15.43;10.15;;;12.40;99.90;;;;;;2079969;28;20120;-63
2021/10/18 02:08:23;;;;;;;13.40;9.95;;;12.40;99.90;;;;;;2080237;28;20022;-62
2021/10/18 02:09:24;;;;;;;12.55;9.75;;;12.50;99.90;;;;;;2077970;28;20049;-63
2021/10/18 02:10:25;;;;;;;14.20;9.70;;;12.40;99.90;;;;;;2083522;28;20064;-62
2021/10/18 02:11:25;;;;;;;14.02;9.82;;;12.40;99.90;;;;;;2078136;28;20120;-62
2021/10/18 02:12:27;;;;;;;13.65;9.80;;;12.40;99.90;;;;;;2076192;28;20184;-62
2021/10/18 02:13:28;;;;;;;12.23;10.32;;;12.40;99.90;;;;;;2080785;28;20025;-63
2021/10/18 02:14:29;;;;;;;16.65;9.88;;;12.50;99.90;;;;;;2079501;28;20075;-62
2021/10/18 02:15:29;;;;;;;13.10;10.30;;;12.40;99.90;;;;;;2086656;28;20508;-62
2021/10/18 02:16:30;;;;;;;14.75;10.45;;;12.40;99.90;;;;;;2084027;28;20108;-63
2021/10/18 02:17:31;;;;;;;15.18;10.35;;;12.40;99.90;;;;;;2079968;28;20053;-62
2021/10/18 02:18:31;;;;;;;13.18;9.60;;;12.40;99.90;;;;;;2080699;28;20546;-62
2021/10/18 02:19:32;;;;;;;14.57;9.95;;;12.40;99.90;;;;;;2080489;28;20025;-63
2021/10/18 02:20:33;;;;;;;12.73;9.82;;;12.40;99.90;;;;;;2080769;28;20075;-62
2021/10/18 02:21:34;;;;;;;13.13;10.50;;;12.40;99.90;;;;;;2085200;28;20392;-62
2021/10/18 02:22:35;;;;;;;14.65;10.63;;;12.40;99.90;;;;;;2079777;28;20109;-62
2021/10/18 02:23:35;;;;;;;14.80;10.60;;;12.40;99.90;;;;;;2083308;28;20080;-62
2021/10/18 02:24:36;;;;;;;15.15;10.15;;;12.40;99.90;;;;;;2088484;28;20024;-62
2021/10/18 02:25:37;;;;;;;12.70;10.32;;;12.40;99.90;;;;;;2083704;28;20514;-62
2021/10/18 02:26:38;;;;;;;14.70;10.25;;;12.40;99.90;;;;;;2071747;28;20086;-62
2021/10/18 02:27:39;;;;;;;18.05;10.68;;;12.40;99.90;;;;;;2078302;28;20025;-62
2021/10/18 02:28:40;;;;;;;16.27;10.50;;;12.40;99.90;;;;;;2075168;28;20420;-61
2021/10/18 02:29:40;;;;;;;13.25;10.43;;;12.40;99.90;;;;;;2080207;28;20021;-62
2021/10/18 02:30:41;;;;;;;19.27;10.43;;;12.40;99.90;;;;;;2076965;28;20504;-61
2021/10/18 02:31:42;;;;;;;15.40;10.32;;;12.40;99.90;;;;;;2072545;28;20056;-62
2021/10/18 02:32:42;;;;;;;13.70;9.70;;;12.40;99.90;;;;;;2087777;28;20017;-62
2021/10/18 02:33:43;;;;;;;12.20;9.65;;;12.30;99.90;;;;;;2088765;28;20103;-62
2021/10/18 02:34:44;;;;;;;16.27;10.38;;;12.30;99.90;;;;;;2078661;28;20025;-62
2021/10/18 02:35:45;;;;;;;16.13;10.93;;;12.30;99.90;;;;;;2080721;28;20889;-62
2021/10/18 02:36:46;;;;;;;14.63;9.90;;;12.30;99.90;;;;;;2088272;28;20128;-62
2021/10/18 02:37:47;;;;;;;12.38;10.05;;;12.30;99.90;;;;;;2072223;28;20026;-62
2021/10/18 02:38:47;;;;;;;16.13;10.13;;;12.30;99.90;;;;;;2071967;28;20416;-62
2021/10/18 02:39:48;;;;;;;13.18;10.50;;;12.30;99.90;;;;;;2080130;28;20550;-62
2021/10/18 02:40:49;;;;;;;15.88;11.40;;;12.30;99.90;;;;;;2074032;28;20053;-62
2021/10/18 02:41:49;;;;;;;15.57;10.18;;;12.30;99.90;;;;;;2071430;28;20026;-62
2021/10/18 02:42:50;;;;;;;14.32;10.15;;;12.30;99.90;;;;;;2084373;28;20021;-62
2021/10/18 02:43:51;;;;;;;16.25;10.43;;;12.20;99.90;;;;;;2077825;28;20488;-62
2021/10/18 02:44:51;;;;;;;13.10;10.35;;;12.20;99.90;;;;;;2080705;28;20413;-62
2021/10/18 02:45:52;;;;;;;13.35;10.48;;;12.20;99.90;;;;;;2080310;28;20029;-62
2021/10/18 02:46:53;;;;;;;13.13;10.07;;;12.20;99.90;;;;;;2079918;28;20024;-61
2021/10/18 02:47:53;;;;;;;15.65;10.43;;;12.20;99.90;;;;;;2079694;28;20021;-62
2021/10/18 02:48:54;;;;;;;14.75;10.80;;;12.20;99.90;;;;;;2078208;28;20053;-62
2021/10/18 02:49:55;;;;;;;19.65;11.90;;;12.20;99.90;;;;;;2086184;28;20721;-63
2021/10/18 02:50:55;;;;;;;14.23;11.00;;;12.20;99.90;;;;;;2082558;28;20097;-62
2021/10/18 02:51:56;;;;;;;15.05;10.80;;;12.20;99.90;;;;;;2080701;28;20033;-62
2021/10/18 02:52:57;;;;;;;14.00;10.20;;;12.30;99.90;;;;;;2080607;28;20094;-62
2021/10/18 02:53:57;;;;;;;16.63;10.48;;;12.30;99.90;;;;;;2077736;28;20090;-62
2021/10/18 02:54:58;;;;;;;13.07;10.20;;;12.40;99.90;;;;;;2072352;28;20037;-63
2021/10/18 02:55:59;;;;;;;14.85;10.60;;;12.40;99.90;;;;;;2093141;28;20112;-62
2021/10/18 02:56:59;;;;;;;19.33;11.35;;;12.40;99.90;;;;;;2088204;28;20132;-61
2021/10/18 02:58:00;;;;;;;17.10;10.65;;;12.40;99.90;;;;;;2077252;28;20514;-62
2021/10/18 02:59:01;;;;;;;13.75;9.90;;;12.40;99.90;;;;;;2078848;28;20108;-62
2021/10/18 03:00:02;;;;;;;12.98;10.60;;;12.40;99.90;;;;;;2080372;28;20139;-62
2021/10/18 03:01:03;;;;;;;14.73;10.20;;;12.40;99.90;;;;;;2080310;28;20074;-62
2021/10/18 03:02:04;;;;;;;13.00;9.52;;;12.40;99.90;;;;;;2080601;28;20436;-62
2021/10/18 03:03:06;;;;;;;13.07;10.15;;;12.30;99.90;;;;;;2079676;28;20053;-62
2021/10/18 03:04:06;;;;;;;;;;;12.30;99.90;;;;;;2064723;28;20026;-62
2021/10/18 03:05:07;;;;;;;14.95;10.52;;;12.30;99.90;;;;;;2071574;28;20367;-62
2021/10/18 03:06:08;;;;;;;16.70;10.93;;;12.30;99.90;;;;;;2076589;28;20451;-62
2021/10/18 03:07:09;;;;;;;16.13;10.90;;;12.30;99.90;;;;;;2078709;28;20025;-62
2021/10/18 03:08:09;;;;;;;12.93;10.30;;;12.30;99.90;;;;;;2082782;28;20030;-62
2021/10/18 03:09:10;;;;;;;12.02;9.50;;;12.30;99.90;;;;;;2083614;28;20028;-62
2021/10/18 03:10:11;;;;;;;14.95;11.02;;;12.30;99.90;;;;;;2071712;28;20080;-61
2021/10/18 03:11:13;;;;;;;18.88;10.10;;;12.30;99.90;;;;;;2076638;28;20793;-62
2021/10/18 03:12:13;;;;;;;13.45;10.02;;;12.30;99.90;;;;;;2080616;28;20516;-62
2021/10/18 03:13:16;;;;;;;14.13;10.38;;;12.30;99.90;;;;;;2079432;28;20026;-62
2021/10/18 03:14:18;;;;;;;14.98;10.52;;;12.20;99.90;;;;;;2079645;28;20116;-61
2021/10/18 03:15:18;;;;;;;19.80;11.48;;;12.30;99.90;;;;;;2080720;28;20554;-62
2021/10/18 03:16:19;;;;;;;13.43;10.07;;;12.20;99.90;;;;;;2078229;28;20033;-62
2021/10/18 03:17:20;;;;;;;16.30;10.70;;;12.20;99.90;;;;;;2085853;28;20018;-62
2021/10/18 03:18:20;;;;;;;16.25;10.23;;;12.20;99.90;;;;;;2081799;28;20029;-62
2021/10/18 03:19:21;;;;;;;19.70;10.93;;;12.20;99.90;;;;;;2085226;28;20021;-62
2021/10/18 03:20:22;;;;;;;13.48;11.07;;;12.20;99.90;;;;;;2074798;28;20029;-62
2021/10/18 03:21:23;;;;;;;14.98;11.43;;;12.20;99.90;;;;;;2084714;28;20500;-62
2021/10/18 03:22:23;;;;;;;15.02;9.93;;;12.20;99.90;;;;;;2082932;28;20075;-62
2021/10/18 03:23:24;;;;;;;14.82;9.98;;;12.20;99.90;;;;;;2080448;28;20025;-62
2021/10/18 03:24:25;;;;;;;15.82;11.30;;;12.10;99.90;;;;;;2079362;28;20436;-61
2021/10/18 03:25:26;;;;;;;16.75;10.43;;;12.10;99.90;;;;;;2087738;28;20111;-62
2021/10/18 03:26:27;;;;;;;15.05;10.65;;;12.10;99.90;;;;;;2093466;28;20046;-64
2021/10/18 03:27:28;;;;;;;14.63;11.30;;;12.20;99.90;;;;;;2074733;28;20493;-62
2021/10/18 03:28:29;;;;;;;14.18;10.65;;;12.10;99.90;;;;;;2079176;28;20061;-62
2021/10/18 03:29:30;;;;;;;26.38;11.32;;;12.10;99.90;;;;;;2075621;28;20615;-62
2021/10/18 03:30:31;;;;;;;14.50;10.75;;;12.10;99.90;;;;;;2084969;28;20100;-61
2021/10/18 03:31:32;;;;;;;15.70;11.40;;;12.10;99.90;;;;;;2083214;28;20020;-62
2021/10/18 03:32:32;;;;;;;14.98;11.27;;;12.10;99.90;;;;;;2083014;28;20079;-62
2021/10/18 03:33:38;;;;;;;15.35;10.52;;;12.10;99.90;;;;;;2080580;28;20481;-62
2021/10/18 03:34:38;;;;;;;15.65;10.68;;;12.10;99.90;;;;;;2079981;28;20044;-62
2021/10/18 03:35:39;;;;;;;17.45;10.57;;;12.10;99.90;;;;;;2080353;28;20052;-62
2021/10/18 03:36:40;;;;;;;16.13;10.43;;;12.20;99.90;;;;;;2088305;28;20112;-62
2021/10/18 03:37:40;;;;;;;16.65;10.50;;;12.10;99.90;;;;;;2087335;28;20515;-62
2021/10/18 03:38:41;;;;;;;14.57;10.50;;;12.20;99.90;;;;;;2088256;28;20470;-62
2021/10/18 03:39:42;;;;;;;16.23;10.68;;;12.10;99.90;;;;;;2080155;28;20018;-61
2021/10/18 03:40:42;;;;;;;14.57;10.68;;;12.20;99.90;;;;;;2074773;28;20063;-62
2021/10/18 03:41:43;;;;;;;14.68;11.23;;;12.10;99.90;;;;;;2072536;28;21065;-62
2021/10/18 03:42:44;;;;;;;13.63;10.75;;;12.20;99.90;;;;;;2079652;28;20029;-62
2021/10/18 03:43:44;;;;;;;13.82;10.30;;;12.20;99.90;;;;;;2079722;28;20101;-62
2021/10/18 03:44:45;;;;;;;16.98;10.75;;;12.10;99.90;;;;;;2080392;28;20559;-62
2021/10/18 03:45:46;;;;;;;19.17;10.77;;;12.10;99.90;;;;;;2079802;28;20018;-62
2021/10/18 03:46:47;;;;;;;15.93;10.77;;;12.10;99.90;;;;;;2082979;28;20022;-62
2021/10/18 03:47:48;;;;;;;13.73;10.38;;;12.10;99.90;;;;;;2074428;28;20025;-61
2021/10/18 03:48:48;;;;;;;12.77;10.40;;;12.10;99.90;;;;;;2082641;28;20124;-62
2021/10/18 03:49:49;;;;;;;19.55;10.25;;;12.10;99.90;;;;;;2081796;28;20072;-63
2021/10/18 03:50:50;;;;;;;13.90;11.20;;;12.10;99.90;;;;;;2081459;28;20022;-62
2021/10/18 03:51:51;;;;;;;17.05;10.25;;;12.10;99.90;;;;;;2082044;28;20052;-62
2021/10/18 03:52:51;;;;;;;13.98;10.57;;;12.20;99.90;;;;;;2079747;28;20029;-62
2021/10/18 03:53:52;;;;;;;17.80;11.15;;;12.20;99.90;;;;;;2080234;28;20029;-62
2021/10/18 03:54:53;;;;;;;15.80;10.40;;;12.20;99.90;;;;;;2065173;28;20035;-61
2021/10/18 03:55:54;;;;;;;15.65;10.40;;;12.20;99.90;;;;;;2077071;28;20029;-62
2021/10/18 03:56:54;;;;;;;16.13;10.82;;;12.10;99.90;;;;;;2081475;28;20100;-62
2021/10/18 03:57:55;;;;;;;16.10;10.38;;;12.10;99.90;;;;;;2074749;28;20025;-62
2021/10/18 03:58:56;;;;;;;16.98;11.02;;;12.10;99.90;;;;;;2074478;28;20484;-62
2021/10/18 03:59:57;;;;;;;18.95;10.27;;;12.20;99.90;;;;;;2073895;28;20025;-62
2021/10/18 04:00:57;;;;;;;15.02;11.10;;;12.10;99.90;;;;;;2075137;28;20101;-62
2021/10/18 04:01:58;;;;;;;16.35;10.93;;;12.10;99.90;;;;;;2073640;28;20085;-62
2021/10/18 04:02:59;;;;;;;14.65;11.20;;;12.20;99.90;;;;;;2082670;28;20018;-62
2021/10/18 04:03:59;;;;;;;15.68;10.60;;;12.20;99.90;;;;;;2080911;28;20045;-62
2021/10/18 04:05:00;;;;;;;14.50;10.20;;;12.20;99.90;;;;;;2073566;28;20052;-62
2021/10/18 04:06:00;;;;;;;18.30;11.40;;;12.20;99.90;;;;;;2077179;28;20021;-62
2021/10/18 04:07:02;;;;;;;19.08;11.05;;;12.20;99.90;;;;;;2081955;28;20027;-62
2021/10/18 04:08:03;;;;;;;14.75;10.88;;;12.20;99.90;;;;;;2076673;28;20010;-62
2021/10/18 04:09:04;;;;;;;14.55;10.70;;;12.20;99.90;;;;;;2074580;28;20020;-62
2021/10/18 04:10:06;;;;;;;18.48;11.45;;;12.20;99.90;;;;;;2078450;28;20026;-62
2021/10/18 04:11:06;;;;;;;15.13;10.60;;;12.20;99.90;;;;;;2079693;28;20022;-62
2021/10/18 04:12:07;;;;;;;17.15;11.20;;;12.20;99.90;;;;;;2081063;28;20037;-62
2021/10/18 04:13:08;;;;;;;13.80;10.93;;;12.20;99.90;;;;;;2075994;28;20052;-62
2021/10/18 04:14:08;;;;;;;16.05;11.00;;;12.20;99.90;;;;;;2080694;28;20171;-62
2021/10/18 04:15:10;;;;;;;14.57;11.52;;;12.20;99.90;;;;;;2080949;28;20101;-62
2021/10/18 04:16:10;;;;;;;17.08;11.10;;;12.30;99.90;;;;;;2080986;28;20064;-62
2021/10/18 04:17:11;;;;;;;17.92;11.02;;;12.20;99.90;;;;;;2084700;28;20026;-62
2021/10/18 04:18:12;;;;;;;13.82;9.90;;;12.30;99.90;;;;;;2076503;28;20080;-62
2021/10/18 04:19:12;;;;;;;14.68;10.50;;;12.30;99.90;;;;;;2073456;28;20022;-62
2021/10/18 04:20:13;;;;;;;15.60;11.13;;;12.30;99.90;;;;;;2080406;28;20677;-61
2021/10/18 04:21:14;;;;;;;16.52;10.80;;;12.30;99.90;;;;;;2083270;28;20079;-63
2021/10/18 04:22:14;;;;;;;15.93;10.73;;;12.30;99.90;;;;;;2085738;28;20059;-62
2021/10/18 04:23:15;;;;;;;14.30;10.45;;;12.30;99.90;;;;;;2081166;28;20120;-63
2021/10/18 04:24:16;;;;;;;16.70;11.07;;;12.30;99.90;;;;;;2083529;28;20024;-61
2021/10/18 04:25:17;;;;;;;15.02;11.07;;;12.30;99.90;;;;;;2082302;28;20026;-62
2021/10/18 04:26:18;;;;;;;13.15;10.35;;;12.30;99.90;;;;;;2080642;28;20029;-62
2021/10/18 04:27:18;;;;;;;17.80;10.50;;;12.30;99.90;;;;;;2076859;28;20049;-62
2021/10/18 04:28:19;;;;;;;16.17;10.32;;;12.30;99.90;;;;;;2064716;28;20030;-62
2021/10/18 04:29:20;;;;;;;17.13;10.52;;;12.30;99.90;;;;;;2076099;28;20040;-62
2021/10/18 04:30:20;;;;;;;13.80;11.02;;;12.30;99.90;;;;;;2079720;28;20037;-62
2021/10/18 04:31:21;;;;;;;14.93;10.30;;;12.30;99.90;;;;;;2084764;28;20101;-62
2021/10/18 04:32:22;;;;;;;13.82;10.43;;;12.30;99.90;;;;;;2084333;28;20026;-62
2021/10/18 04:33:23;;;;;;;14.95;10.75;;;12.30;99.90;;;;;;2086928;28;20025;-62
2021/10/18 04:34:25;;;;;;;14.73;11.23;;;12.30;99.90;;;;;;2078474;28;20029;-62
2021/10/18 04:35:26;;;;;;;16.27;10.75;;;12.30;99.90;;;;;;2089035;28;20112;-62
2021/10/18 04:36:28;;;;;;;16.00;10.68;;;12.30;99.90;;;;;;2081609;28;20021;-62
2021/10/18 04:37:28;;;;;;;14.80;11.15;;;12.30;99.90;;;;;;2080515;28;20021;-62
2021/10/18 04:38:29;;;;;;;14.52;10.52;;;12.30;99.90;;;;;;2080995;28;20021;-62
2021/10/18 04:39:30;;;;;;;14.63;10.77;;;12.30;99.90;;;;;;2085826;28;20110;-62
2021/10/18 04:40:32;;;;;;;16.85;10.40;;;12.30;99.90;;;;;;2084389;28;20018;-62
2021/10/18 04:41:32;;;;;;;15.45;10.93;;;12.30;99.90;;;;;;2089041;28;20032;-62
2021/10/18 04:42:33;;;;;;;16.45;11.18;;;12.30;99.90;;;;;;2081932;28;20079;-62
2021/10/18 04:43:34;;;;;;;19.08;11.65;;;12.30;99.90;;;;;;2080348;28;20045;-62
2021/10/18 04:44:36;;;;;;;15.40;11.23;;;12.30;99.90;;;;;;2081124;28;20025;-62
2021/10/18 04:45:38;;;;;;;12.98;10.23;;;12.30;99.90;;;;;;2080212;28;20014;-62
2021/10/18 04:46:38;;;;;;;17.00;10.43;;;12.30;99.90;;;;;;2080678;28;20108;-62
2021/10/18 04:47:47;;;;;;;17.75;10.65;;;12.30;99.90;;;;;;2087042;28;20333;-62
2021/10/18 04:48:48;;;;;;;15.40;10.75;;;12.30;99.90;;;;;;2075202;28;20045;-62
2021/10/18 04:49:49;;;;;;;14.10;10.23;;;12.30;99.90;;;;;;2080630;28;20091;-62
2021/10/18 04:50:50;;;;;;;15.38;10.73;;;12.30;99.90;;;;;;2080752;28;20071;-61
2021/10/18 04:51:50;;;;;;;16.58;10.55;;;12.30;99.90;;;;;;2080471;28;20924;-62
2021/10/18 04:52:51;;;;;;;13.88;11.20;;;12.30;99.90;;;;;;2076833;28;20025;-61
2021/10/18 04:53:52;;;;;;;13.55;10.82;;;12.30;99.90;;;;;;2082520;28;20028;-62
2021/10/18 04:54:52;;;;;;;16.13;11.60;;;12.30;99.90;;;;;;2089296;28;20130;-62
2021/10/18 04:55:53;;;;;;;15.55;10.35;;;12.30;99.90;;;;;;2081079;28;20025;-62
2021/10/18 04:56:53;;;;;;;14.05;10.80;;;12.30;99.90;;;;;;2080890;28;20052;-62
2021/10/18 04:57:57;;;;;;;17.23;10.95;;;12.30;99.90;;;;;;2080333;28;20104;-61
2021/10/18 04:58:57;;;;;;;16.23;11.30;;;12.30;99.90;;;;;;2079267;28;20102;-62
2021/10/18 04:59:58;;;;;;;13.43;10.60;;;12.30;99.90;;;;;;2073136;28;20030;-61
2021/10/18 05:00:59;;;;;;;14.80;10.38;;;12.20;99.90;;;;;;2073118;28;20022;-62
2021/10/18 05:01:59;;;;;;;15.32;10.95;;;12.30;99.90;;;;;;2089016;28;20036;-62
2021/10/18 05:03:00;;;;;;;17.63;10.93;;;12.20;99.90;;;;;;2083212;28;20452;-62
2021/10/18 05:04:01;;;;;;;16.42;10.85;;;12.30;99.90;;;;;;2088072;28;20044;-62
2021/10/18 05:05:01;;;;;;;14.02;11.07;;;12.20;99.90;;;;;;2080776;28;20032;-62
2021/10/18 05:06:02;;;;;;;15.07;10.75;;;12.20;99.90;;;;;;2080006;28;20767;-62
2021/10/18 05:07:03;;;;;;;14.93;11.32;;;12.20;99.90;;;;;;2080668;28;20132;-62
2021/10/18 05:08:05;;;;;;;17.55;10.80;;;12.20;99.90;;;;;;2080766;28;20039;-62
2021/10/18 05:09:06;;;;;;;14.25;11.27;;;12.20;99.90;;;;;;2081403;28;20092;-62
2021/10/18 05:10:12;;;;;;;14.20;11.07;;;12.20;99.90;;;;;;2090952;28;20460;-62
2021/10/18 05:11:12;;;;;;;17.75;11.55;;;12.20;99.90;;;;;;2083021;28;20509;-62